Santa Cruz de la Sierra, Bolivia
Current Conditions -  °F | °C
As of 10:00 AM on Thursday 30 Oct 2014 (Local Time) from SLET Reporting Station
Broken Clouds Broken Clouds  
Wind Chill: 77°   Ceiling: 1300
Heat Index: 78°   Visibility: 6mi
Dew Point: 72°   Wind: 23mph
Humidity: 83%   Direction: 320°NW
Pressure: 29.71"   Gusts: 35mph
Location:  17.79°S, 63.2°W
Report Text: SLET 301400Z 32020G30KT 9999 BKN013 25/22 Q1006
Loading
Personal Weather Stations






























Interactive Weather Map
Tropical Storm Tracking
New forecast layout! Learn more

10-Day Weather Forecast

Advertisements
Track Severe Weather on mobile